sensor_id;sensor_type;location;lat;lon;timestamp;P1;durP1;ratioP1;P2;durP2;ratioP2
59006;SDS011;44792;52.760;6.726;2022-08-01T00:01:50;6.78;;;5.95;;
59006;SDS011;44792;52.760;6.726;2022-08-01T00:04:15;7.72;;;6.32;;
59006;SDS011;44792;52.760;6.726;2022-08-01T00:06:41;11.68;;;7.13;;
59006;SDS011;44792;52.760;6.726;2022-08-01T00:09:07;9.60;;;6.88;;
59006;SDS011;44792;52.760;6.726;2022-08-01T00:11:32;9.00;;;7.07;;
59006;SDS011;44792;52.760;6.726;2022-08-01T00:13:58;9.63;;;6.60;;
59006;SDS011;44792;52.760;6.726;2022-08-01T00:16:23;10.68;;;7.07;;
59006;SDS011;44792;52.760;6.726;2022-08-01T00:18:49;10.10;;;7.03;;
59006;SDS011;44792;52.760;6.726;2022-08-01T00:21:16;9.50;;;7.20;;
59006;SDS011;44792;52.760;6.726;2022-08-01T00:23:42;11.57;;;8.25;;
59006;SDS011;44792;52.760;6.726;2022-08-01T00:26:10;13.57;;;8.25;;
59006;SDS011;44792;52.760;6.726;2022-08-01T00:28:37;12.48;;;8.80;;
59006;SDS011;44792;52.760;6.726;2022-08-01T00:31:03;13.25;;;9.25;;
59006;SDS011;44792;52.760;6.726;2022-08-01T00:33:28;11.43;;;9.13;;
59006;SDS011;44792;52.760;6.726;2022-08-01T00:35:54;14.48;;;8.48;;
59006;SDS011;44792;52.760;6.726;2022-08-01T00:38:20;12.70;;;9.07;;
59006;SDS011;44792;52.760;6.726;2022-08-01T00:40:45;12.75;;;8.88;;
59006;SDS011;44792;52.760;6.726;2022-08-01T00:43:11;15.98;;;8.65;;
59006;SDS011;44792;52.760;6.726;2022-08-01T00:45:36;13.77;;;9.25;;
59006;SDS011;44792;52.760;6.726;2022-08-01T00:48:02;17.38;;;9.90;;
59006;SDS011;44792;52.760;6.726;2022-08-01T00:50:28;16.95;;;9.80;;
59006;SDS011;44792;52.760;6.726;2022-08-01T00:52:54;14.52;;;9.18;;
59006;SDS011;44792;52.760;6.726;2022-08-01T00:55:20;15.82;;;9.18;;
59006;SDS011;44792;52.760;6.726;2022-08-01T00:57:46;12.82;;;9.43;;
59006;SDS011;44792;52.760;6.726;2022-08-01T01:00:13;14.30;;;8.75;;
59006;SDS011;44792;52.760;6.726;2022-08-01T01:02:39;14.52;;;8.23;;
59006;SDS011;44792;52.760;6.726;2022-08-01T01:05:05;11.65;;;8.65;;
59006;SDS011;44792;52.760;6.726;2022-08-01T01:07:42;11.65;;;8.65;;
59006;SDS011;44792;52.760;6.726;2022-08-01T01:10:22;11.13;;;8.43;;
59006;SDS011;44792;52.760;6.726;2022-08-01T01:13:10;12.45;;;7.90;;
59006;SDS011;44792;52.760;6.726;2022-08-01T01:15:51;11.57;;;8.45;;
59006;SDS011;44792;52.760;6.726;2022-08-01T01:18:24;14.95;;;8.05;;
59006;SDS011;44792;52.760;6.726;2022-08-01T01:24:00;13.90;;;9.10;;
59006;SDS011;44792;52.760;6.726;2022-08-01T01:26:35;12.73;;;8.73;;
59006;SDS011;44792;52.760;6.726;2022-08-01T01:29:25;12.98;;;8.40;;
59006;SDS011;44792;52.760;6.726;2022-08-01T01:32:05;12.73;;;8.55;;
59006;SDS011;44792;52.760;6.726;2022-08-01T01:34:48;10.55;;;6.97;;
59006;SDS011;44792;52.760;6.726;2022-08-01T01:37:18;11.50;;;7.53;;
59006;SDS011;44792;52.760;6.726;2022-08-01T01:39:48;9.27;;;6.65;;
59006;SDS011;44792;52.760;6.726;2022-08-01T01:42:16;10.75;;;7.50;;
59006;SDS011;44792;52.760;6.726;2022-08-01T01:44:43;12.00;;;6.65;;
59006;SDS011;44792;52.760;6.726;2022-08-01T01:47:10;10.73;;;6.90;;
59006;SDS011;44792;52.760;6.726;2022-08-01T01:49:41;8.75;;;6.97;;
59006;SDS011;44792;52.760;6.726;2022-08-01T01:52:09;8.95;;;6.65;;
59006;SDS011;44792;52.760;6.726;2022-08-01T01:54:44;10.93;;;6.50;;
59006;SDS011;44792;52.760;6.726;2022-08-01T01:57:14;8.27;;;6.15;;
59006;SDS011;44792;52.760;6.726;2022-08-01T01:59:41;9.05;;;6.45;;
59006;SDS011;44792;52.760;6.726;2022-08-01T02:02:08;7.13;;;6.25;;
59006;SDS011;44792;52.760;6.726;2022-08-01T02:04:35;12.60;;;7.40;;
59006;SDS011;44792;52.760;6.726;2022-08-01T02:07:03;9.50;;;8.50;;
59006;SDS011;44792;52.760;6.726;2022-08-01T02:09:30;8.48;;;7.65;;
59006;SDS011;44792;52.760;6.726;2022-08-01T02:11:58;11.40;;;7.80;;
59006;SDS011;44792;52.760;6.726;2022-08-01T02:14:26;12.70;;;7.57;;
59006;SDS011;44792;52.760;6.726;2022-08-01T02:16:53;8.70;;;7.80;;
59006;SDS011;44792;52.760;6.726;2022-08-01T02:19:21;8.45;;;7.63;;
59006;SDS011;44792;52.760;6.726;2022-08-01T02:24:43;7.40;;;6.22;;
59006;SDS011;44792;52.760;6.726;2022-08-01T02:27:26;6.32;;;5.72;;
59006;SDS011;44792;52.760;6.726;2022-08-01T02:30:03;7.13;;;5.75;;
59006;SDS011;44792;52.760;6.726;2022-08-01T02:32:31;5.85;;;5.35;;
59006;SDS011;44792;52.760;6.726;2022-08-01T02:35:03;4.50;;;4.10;;
59006;SDS011;44792;52.760;6.726;2022-08-01T02:37:33;5.13;;;4.65;;
59006;SDS011;44792;52.760;6.726;2022-08-01T02:40:02;5.65;;;4.25;;
59006;SDS011;44792;52.760;6.726;2022-08-01T02:42:30;5.32;;;4.55;;
59006;SDS011;44792;52.760;6.726;2022-08-01T02:44:58;5.03;;;4.18;;
59006;SDS011;44792;52.760;6.726;2022-08-01T02:47:27;4.38;;;3.97;;
59006;SDS011;44792;52.760;6.726;2022-08-01T02:49:54;5.15;;;4.68;;
59006;SDS011;44792;52.760;6.726;2022-08-01T02:52:21;5.50;;;4.43;;
59006;SDS011;44792;52.760;6.726;2022-08-01T02:54:51;5.32;;;4.40;;
59006;SDS011;44792;52.760;6.726;2022-08-01T02:57:20;5.05;;;4.22;;
59006;SDS011;44792;52.760;6.726;2022-08-01T02:59:46;6.22;;;4.55;;
59006;SDS011;44792;52.760;6.726;2022-08-01T03:02:14;4.78;;;4.45;;
59006;SDS011;44792;52.760;6.726;2022-08-01T03:04:41;5.03;;;3.83;;
59006;SDS011;44792;52.760;6.726;2022-08-01T03:07:09;7.53;;;4.60;;
59006;SDS011;44792;52.760;6.726;2022-08-01T03:09:38;5.82;;;5.20;;
59006;SDS011;44792;52.760;6.726;2022-08-01T03:12:09;5.38;;;4.57;;
59006;SDS011;44792;52.760;6.726;2022-08-01T03:14:39;6.85;;;4.78;;
59006;SDS011;44792;52.760;6.726;2022-08-01T03:17:07;5.93;;;4.65;;
59006;SDS011;44792;52.760;6.726;2022-08-01T03:19:34;5.72;;;4.82;;
59006;SDS011;44792;52.760;6.726;2022-08-01T03:22:02;5.82;;;4.45;;
59006;SDS011;44792;52.760;6.726;2022-08-01T03:24:36;7.80;;;4.38;;
59006;SDS011;44792;52.760;6.726;2022-08-01T03:27:04;4.72;;;4.32;;
59006;SDS011;44792;52.760;6.726;2022-08-01T03:29:31;5.18;;;4.78;;
59006;SDS011;44792;52.760;6.726;2022-08-01T03:31:58;5.57;;;4.63;;
59006;SDS011;44792;52.760;6.726;2022-08-01T03:34:26;6.50;;;4.57;;
59006;SDS011;44792;52.760;6.726;2022-08-01T03:36:56;5.97;;;5.28;;
59006;SDS011;44792;52.760;6.726;2022-08-01T03:39:30;5.78;;;4.18;;
59006;SDS011;44792;52.760;6.726;2022-08-01T03:42:00;6.88;;;5.05;;
59006;SDS011;44792;52.760;6.726;2022-08-01T03:44:31;6.63;;;4.90;;
59006;SDS011;44792;52.760;6.726;2022-08-01T03:47:02;5.13;;;4.65;;
59006;SDS011;44792;52.760;6.726;2022-08-01T03:49:32;6.55;;;4.93;;
59006;SDS011;44792;52.760;6.726;2022-08-01T03:52:03;9.15;;;4.47;;
59006;SDS011;44792;52.760;6.726;2022-08-01T03:54:33;5.28;;;4.78;;
59006;SDS011;44792;52.760;6.726;2022-08-01T03:57:02;9.77;;;5.07;;
59006;SDS011;44792;52.760;6.726;2022-08-01T03:59:29;8.60;;;4.63;;
59006;SDS011;44792;52.760;6.726;2022-08-01T04:01:55;8.32;;;4.32;;
59006;SDS011;44792;52.760;6.726;2022-08-01T04:04:22;8.98;;;3.72;;
59006;SDS011;44792;52.760;6.726;2022-08-01T04:06:48;5.75;;;3.88;;
59006;SDS011;44792;52.760;6.726;2022-08-01T04:09:18;4.50;;;3.03;;
59006;SDS011;44792;52.760;6.726;2022-08-01T04:11:45;6.97;;;3.58;;
59006;SDS011;44792;52.760;6.726;2022-08-01T04:14:12;4.43;;;3.13;;
59006;SDS011;44792;52.760;6.726;2022-08-01T04:16:37;3.38;;;3.08;;
59006;SDS011;44792;52.760;6.726;2022-08-01T04:19:03;5.47;;;3.20;;
59006;SDS011;44792;52.760;6.726;2022-08-01T04:21:32;8.23;;;3.28;;
59006;SDS011;44792;52.760;6.726;2022-08-01T04:23:59;9.82;;;3.30;;
59006;SDS011;44792;52.760;6.726;2022-08-01T04:26:36;5.15;;;3.05;;
59006;SDS011;44792;52.760;6.726;2022-08-01T04:29:03;6.78;;;3.35;;
59006;SDS011;44792;52.760;6.726;2022-08-01T04:31:30;6.95;;;3.25;;
59006;SDS011;44792;52.760;6.726;2022-08-01T04:33:57;7.93;;;4.10;;
59006;SDS011;44792;52.760;6.726;2022-08-01T04:36:26;7.38;;;3.80;;
59006;SDS011;44792;52.760;6.726;2022-08-01T04:38:57;9.40;;;3.45;;
59006;SDS011;44792;52.760;6.726;2022-08-01T04:41:25;5.13;;;3.40;;
59006;SDS011;44792;52.760;6.726;2022-08-01T04:43:51;7.25;;;3.38;;
59006;SDS011;44792;52.760;6.726;2022-08-01T04:46:19;3.95;;;3.30;;
59006;SDS011;44792;52.760;6.726;2022-08-01T04:48:44;9.98;;;3.80;;
59006;SDS011;44792;52.760;6.726;2022-08-01T04:51:11;8.00;;;3.80;;
59006;SDS011;44792;52.760;6.726;2022-08-01T04:53:38;5.18;;;3.55;;
59006;SDS011;44792;52.760;6.726;2022-08-01T04:56:04;9.68;;;3.78;;
59006;SDS011;44792;52.760;6.726;2022-08-01T04:58:30;5.25;;;3.75;;
59006;SDS011;44792;52.760;6.726;2022-08-01T05:00:56;7.22;;;4.07;;
59006;SDS011;44792;52.760;6.726;2022-08-01T05:03:21;7.22;;;3.45;;
59006;SDS011;44792;52.760;6.726;2022-08-01T05:05:47;8.20;;;3.72;;
59006;SDS011;44792;52.760;6.726;2022-08-01T05:08:12;5.72;;;3.53;;
59006;SDS011;44792;52.760;6.726;2022-08-01T05:10:38;6.25;;;4.03;;
59006;SDS011;44792;52.760;6.726;2022-08-01T05:13:04;7.53;;;3.75;;
59006;SDS011;44792;52.760;6.726;2022-08-01T05:15:31;10.65;;;3.75;;
59006;SDS011;44792;52.760;6.726;2022-08-01T05:17:56;6.90;;;3.78;;
59006;SDS011;44792;52.760;6.726;2022-08-01T05:20:22;10.68;;;3.85;;
59006;SDS011;44792;52.760;6.726;2022-08-01T05:22:48;6.30;;;3.72;;
59006;SDS011;44792;52.760;6.726;2022-08-01T05:25:13;8.40;;;3.70;;
59006;SDS011;44792;52.760;6.726;2022-08-01T05:27:39;8.23;;;3.95;;
59006;SDS011;44792;52.760;6.726;2022-08-01T05:30:08;10.60;;;3.95;;
59006;SDS011;44792;52.760;6.726;2022-08-01T05:32:35;6.55;;;3.67;;
59006;SDS011;44792;52.760;6.726;2022-08-01T05:35:01;12.38;;;3.90;;
59006;SDS011;44792;52.760;6.726;2022-08-01T05:37:27;8.00;;;3.45;;
59006;SDS011;44792;52.760;6.726;2022-08-01T05:39:53;7.53;;;3.47;;
59006;SDS011;44792;52.760;6.726;2022-08-01T05:42:18;5.63;;;3.35;;
59006;SDS011;44792;52.760;6.726;2022-08-01T05:44:44;14.65;;;3.33;;
59006;SDS011;44792;52.760;6.726;2022-08-01T05:47:09;10.60;;;4.15;;
59006;SDS011;44792;52.760;6.726;2022-08-01T05:49:35;14.25;;;3.50;;
59006;SDS011;44792;52.760;6.726;2022-08-01T05:52:00;8.85;;;3.67;;
59006;SDS011;44792;52.760;6.726;2022-08-01T05:54:26;9.00;;;3.40;;
59006;SDS011;44792;52.760;6.726;2022-08-01T05:56:52;13.88;;;3.72;;
59006;SDS011;44792;52.760;6.726;2022-08-01T05:59:18;7.60;;;3.40;;
59006;SDS011;44792;52.760;6.726;2022-08-01T06:01:44;22.00;;;3.67;;
59006;SDS011;44792;52.760;6.726;2022-08-01T06:04:09;12.32;;;3.33;;
59006;SDS011;44792;52.760;6.726;2022-08-01T06:06:35;10.80;;;3.60;;
59006;SDS011;44792;52.760;6.726;2022-08-01T06:09:00;14.68;;;4.22;;
59006;SDS011;44792;52.760;6.726;2022-08-01T06:11:26;9.70;;;3.70;;
59006;SDS011;44792;52.760;6.726;2022-08-01T06:13:51;15.20;;;3.80;;
59006;SDS011;44792;52.760;6.726;2022-08-01T06:16:18;12.07;;;3.75;;
59006;SDS011;44792;52.760;6.726;2022-08-01T06:18:44;17.80;;;4.13;;
59006;SDS011;44792;52.760;6.726;2022-08-01T06:21:09;14.52;;;3.63;;
59006;SDS011;44792;52.760;6.726;2022-08-01T06:23:35;20.05;;;4.38;;
59006;SDS011;44792;52.760;6.726;2022-08-01T06:26:01;18.38;;;4.05;;
59006;SDS011;44792;52.760;6.726;2022-08-01T06:28:26;16.45;;;3.50;;
59006;SDS011;44792;52.760;6.726;2022-08-01T06:30:53;16.40;;;3.45;;
59006;SDS011;44792;52.760;6.726;2022-08-01T06:33:18;17.92;;;3.60;;
59006;SDS011;44792;52.760;6.726;2022-08-01T06:35:44;15.60;;;3.42;;
59006;SDS011;44792;52.760;6.726;2022-08-01T06:38:10;18.35;;;3.35;;
59006;SDS011;44792;52.760;6.726;2022-08-01T06:40:35;17.38;;;3.50;;
59006;SDS011;44792;52.760;6.726;2022-08-01T06:43:01;9.30;;;3.33;;
59006;SDS011;44792;52.760;6.726;2022-08-01T06:45:27;17.27;;;4.35;;
59006;SDS011;44792;52.760;6.726;2022-08-01T06:47:52;15.32;;;3.80;;
59006;SDS011;44792;52.760;6.726;2022-08-01T06:50:18;20.45;;;4.70;;
59006;SDS011;44792;52.760;6.726;2022-08-01T06:52:44;18.33;;;3.40;;
59006;SDS011;44792;52.760;6.726;2022-08-01T06:55:09;18.75;;;3.55;;
59006;SDS011;44792;52.760;6.726;2022-08-01T06:57:35;15.73;;;3.00;;
59006;SDS011;44792;52.760;6.726;2022-08-01T07:00:03;20.58;;;3.05;;
59006;SDS011;44792;52.760;6.726;2022-08-01T07:04:59;13.07;;;3.00;;
59006;SDS011;44792;52.760;6.726;2022-08-01T07:07:25;15.85;;;3.38;;
59006;SDS011;44792;52.760;6.726;2022-08-01T07:09:51;14.27;;;3.03;;
59006;SDS011;44792;52.760;6.726;2022-08-01T07:12:17;17.00;;;3.83;;
59006;SDS011;44792;52.760;6.726;2022-08-01T07:14:42;13.88;;;3.33;;
59006;SDS011;44792;52.760;6.726;2022-08-01T07:17:08;22.08;;;4.18;;
59006;SDS011;44792;52.760;6.726;2022-08-01T07:19:34;14.93;;;3.72;;
59006;SDS011;44792;52.760;6.726;2022-08-01T07:21:59;14.68;;;3.72;;
59006;SDS011;44792;52.760;6.726;2022-08-01T07:24:25;14.98;;;3.60;;
59006;SDS011;44792;52.760;6.726;2022-08-01T07:26:51;18.55;;;4.22;;
59006;SDS011;44792;52.760;6.726;2022-08-01T07:29:18;13.05;;;3.92;;
59006;SDS011;44792;52.760;6.726;2022-08-01T07:31:44;19.05;;;3.97;;
59006;SDS011;44792;52.760;6.726;2022-08-01T07:34:10;14.00;;;3.58;;
59006;SDS011;44792;52.760;6.726;2022-08-01T07:36:35;19.73;;;3.50;;
59006;SDS011;44792;52.760;6.726;2022-08-01T07:39:01;11.80;;;3.30;;
59006;SDS011;44792;52.760;6.726;2022-08-01T07:41:27;22.25;;;4.00;;
59006;SDS011;44792;52.760;6.726;2022-08-01T07:43:52;16.88;;;3.55;;
59006;SDS011;44792;52.760;6.726;2022-08-01T07:46:18;15.73;;;3.92;;
59006;SDS011;44792;52.760;6.726;2022-08-01T07:48:44;16.25;;;4.32;;
59006;SDS011;44792;52.760;6.726;2022-08-01T07:51:09;15.77;;;4.20;;
59006;SDS011;44792;52.760;6.726;2022-08-01T07:53:35;12.55;;;3.25;;
59006;SDS011;44792;52.760;6.726;2022-08-01T07:56:02;21.38;;;4.10;;
59006;SDS011;44792;52.760;6.726;2022-08-01T07:58:30;15.73;;;3.80;;
59006;SDS011;44792;52.760;6.726;2022-08-01T08:00:55;16.33;;;3.80;;
59006;SDS011;44792;52.760;6.726;2022-08-01T08:03:21;21.58;;;4.18;;
59006;SDS011;44792;52.760;6.726;2022-08-01T08:05:47;17.63;;;3.88;;
59006;SDS011;44792;52.760;6.726;2022-08-01T08:08:12;21.55;;;4.35;;
59006;SDS011;44792;52.760;6.726;2022-08-01T08:10:39;16.92;;;3.83;;
59006;SDS011;44792;52.760;6.726;2022-08-01T08:13:05;21.52;;;3.60;;
59006;SDS011;44792;52.760;6.726;2022-08-01T08:15:30;15.32;;;3.30;;
59006;SDS011;44792;52.760;6.726;2022-08-01T08:17:56;13.13;;;3.45;;
59006;SDS011;44792;52.760;6.726;2022-08-01T08:20:21;14.52;;;4.28;;
59006;SDS011;44792;52.760;6.726;2022-08-01T08:22:50;14.32;;;3.72;;
59006;SDS011;44792;52.760;6.726;2022-08-01T08:25:16;15.45;;;3.53;;
59006;SDS011;44792;52.760;6.726;2022-08-01T08:27:44;15.68;;;3.90;;
59006;SDS011;44792;52.760;6.726;2022-08-01T08:30:09;19.25;;;4.50;;
59006;SDS011;44792;52.760;6.726;2022-08-01T08:32:36;13.98;;;3.67;;
59006;SDS011;44792;52.760;6.726;2022-08-01T08:35:02;14.35;;;3.67;;
59006;SDS011;44792;52.760;6.726;2022-08-01T08:37:28;14.70;;;4.32;;
59006;SDS011;44792;52.760;6.726;2022-08-01T08:39:54;15.07;;;4.03;;
59006;SDS011;44792;52.760;6.726;2022-08-01T08:42:19;17.27;;;3.65;;
59006;SDS011;44792;52.760;6.726;2022-08-01T08:44:45;14.25;;;3.50;;
59006;SDS011;44792;52.760;6.726;2022-08-01T08:47:11;18.60;;;3.80;;
59006;SDS011;44792;52.760;6.726;2022-08-01T08:49:38;10.88;;;3.50;;
59006;SDS011;44792;52.760;6.726;2022-08-01T08:52:06;20.50;;;4.47;;
59006;SDS011;44792;52.760;6.726;2022-08-01T08:54:34;17.27;;;4.20;;
59006;SDS011;44792;52.760;6.726;2022-08-01T08:57:01;15.25;;;3.83;;
59006;SDS011;44792;52.760;6.726;2022-08-01T08:59:27;15.80;;;3.25;;
59006;SDS011;44792;52.760;6.726;2022-08-01T09:01:54;15.07;;;3.65;;
59006;SDS011;44792;52.760;6.726;2022-08-01T09:04:20;14.75;;;3.90;;
59006;SDS011;44792;52.760;6.726;2022-08-01T09:06:49;15.68;;;3.78;;
59006;SDS011;44792;52.760;6.726;2022-08-01T09:09:15;13.65;;;3.55;;
59006;SDS011;44792;52.760;6.726;2022-08-01T09:11:40;13.98;;;3.50;;
59006;SDS011;44792;52.760;6.726;2022-08-01T09:16:37;12.70;;;3.58;;
59006;SDS011;44792;52.760;6.726;2022-08-01T09:19:07;17.58;;;3.72;;
59006;SDS011;44792;52.760;6.726;2022-08-01T09:21:34;15.68;;;3.58;;
59006;SDS011;44792;52.760;6.726;2022-08-01T09:24:00;10.15;;;2.83;;
59006;SDS011;44792;52.760;6.726;2022-08-01T09:29:00;11.18;;;2.67;;
59006;SDS011;44792;52.760;6.726;2022-08-01T09:31:29;11.13;;;2.63;;
59006;SDS011;44792;52.760;6.726;2022-08-01T09:34:03;12.45;;;3.50;;
59006;SDS011;44792;52.760;6.726;2022-08-01T09:39:17;13.98;;;2.92;;
59006;SDS011;44792;52.760;6.726;2022-08-01T09:41:44;13.07;;;2.83;;
59006;SDS011;44792;52.760;6.726;2022-08-01T09:44:10;12.30;;;3.15;;
59006;SDS011;44792;52.760;6.726;2022-08-01T09:46:43;11.43;;;2.55;;
59006;SDS011;44792;52.760;6.726;2022-08-01T09:49:28;12.90;;;2.97;;
59006;SDS011;44792;52.760;6.726;2022-08-01T09:51:55;12.52;;;2.80;;
59006;SDS011;44792;52.760;6.726;2022-08-01T09:54:32;9.15;;;2.50;;
59006;SDS011;44792;52.760;6.726;2022-08-01T09:57:11;11.63;;;3.13;;
59006;SDS011;44792;52.760;6.726;2022-08-01T09:59:38;15.50;;;2.78;;
59006;SDS011;44792;52.760;6.726;2022-08-01T10:02:07;9.35;;;2.60;;
59006;SDS011;44792;52.760;6.726;2022-08-01T10:04:33;8.73;;;2.38;;
59006;SDS011;44792;52.760;6.726;2022-08-01T10:07:06;15.07;;;3.05;;
59006;SDS011;44792;52.760;6.726;2022-08-01T10:09:33;11.05;;;3.08;;
59006;SDS011;44792;52.760;6.726;2022-08-01T10:12:00;9.27;;;2.63;;
59006;SDS011;44792;52.760;6.726;2022-08-01T10:14:27;16.00;;;3.13;;
59006;SDS011;44792;52.760;6.726;2022-08-01T10:16:53;13.30;;;2.70;;
59006;SDS011;44792;52.760;6.726;2022-08-01T10:19:22;6.63;;;2.42;;
59006;SDS011;44792;52.760;6.726;2022-08-01T10:21:53;7.93;;;2.45;;
59006;SDS011;44792;52.760;6.726;2022-08-01T10:24:20;14.25;;;2.97;;
59006;SDS011;44792;52.760;6.726;2022-08-01T10:27:08;8.85;;;2.67;;
59006;SDS011;44792;52.760;6.726;2022-08-01T10:29:35;10.27;;;2.45;;
59006;SDS011;44792;52.760;6.726;2022-08-01T10:32:02;8.88;;;2.75;;
59006;SDS011;44792;52.760;6.726;2022-08-01T10:34:30;12.38;;;2.70;;
59006;SDS011;44792;52.760;6.726;2022-08-01T10:36:58;8.13;;;2.92;;
59006;SDS011;44792;52.760;6.726;2022-08-01T10:39:25;12.35;;;2.97;;
59006;SDS011;44792;52.760;6.726;2022-08-01T10:41:53;13.98;;;3.53;;
59006;SDS011;44792;52.760;6.726;2022-08-01T10:44:20;8.35;;;2.50;;
59006;SDS011;44792;52.760;6.726;2022-08-01T10:46:46;10.13;;;3.00;;
59006;SDS011;44792;52.760;6.726;2022-08-01T10:49:16;13.45;;;2.25;;
59006;SDS011;44792;52.760;6.726;2022-08-01T10:51:45;8.20;;;3.00;;
59006;SDS011;44792;52.760;6.726;2022-08-01T10:54:12;8.40;;;2.40;;
59006;SDS011;44792;52.760;6.726;2022-08-01T10:56:45;8.73;;;2.50;;
59006;SDS011;44792;52.760;6.726;2022-08-01T11:02:01;13.13;;;2.60;;
59006;SDS011;44792;52.760;6.726;2022-08-01T11:04:32;9.02;;;2.78;;
59006;SDS011;44792;52.760;6.726;2022-08-01T11:09:42;9.13;;;2.65;;
59006;SDS011;44792;52.760;6.726;2022-08-01T11:17:39;5.45;;;1.80;;
59006;SDS011;44792;52.760;6.726;2022-08-01T11:20:19;7.18;;;1.67;;
59006;SDS011;44792;52.760;6.726;2022-08-01T11:25:25;5.90;;;2.10;;
59006;SDS011;44792;52.760;6.726;2022-08-01T11:33:08;10.95;;;2.25;;
59006;SDS011;44792;52.760;6.726;2022-08-01T11:35:34;4.40;;;2.10;;
59006;SDS011;44792;52.760;6.726;2022-08-01T11:38:22;8.18;;;1.98;;
59006;SDS011;44792;52.760;6.726;2022-08-01T11:40:47;8.43;;;2.47;;
59006;SDS011;44792;52.760;6.726;2022-08-01T11:43:32;8.93;;;2.67;;
59006;SDS011;44792;52.760;6.726;2022-08-01T11:45:58;19.77;;;3.13;;
59006;SDS011;44792;52.760;6.726;2022-08-01T11:48:25;8.15;;;2.60;;
59006;SDS011;44792;52.760;6.726;2022-08-01T11:50:52;8.48;;;2.22;;
59006;SDS011;44792;52.760;6.726;2022-08-01T11:53:19;8.07;;;2.30;;
59006;SDS011;44792;52.760;6.726;2022-08-01T11:55:51;6.78;;;2.42;;
59006;SDS011;44792;52.760;6.726;2022-08-01T11:58:22;8.13;;;2.22;;
59006;SDS011;44792;52.760;6.726;2022-08-01T12:00:53;7.30;;;2.00;;
59006;SDS011;44792;52.760;6.726;2022-08-01T12:03:26;10.63;;;2.25;;
59006;SDS011;44792;52.760;6.726;2022-08-01T12:05:53;5.38;;;2.03;;
59006;SDS011;44792;52.760;6.726;2022-08-01T12:08:26;5.43;;;1.92;;
59006;SDS011;44792;52.760;6.726;2022-08-01T12:11:01;6.95;;;2.08;;
59006;SDS011;44792;52.760;6.726;2022-08-01T12:13:39;6.70;;;1.85;;
59006;SDS011;44792;52.760;6.726;2022-08-01T12:16:09;8.18;;;2.15;;
59006;SDS011;44792;52.760;6.726;2022-08-01T12:18:42;7.97;;;2.38;;
59006;SDS011;44792;52.760;6.726;2022-08-01T12:21:08;9.95;;;2.30;;
59006;SDS011;44792;52.760;6.726;2022-08-01T12:23:34;5.22;;;2.38;;
59006;SDS011;44792;52.760;6.726;2022-08-01T12:26:00;7.47;;;2.38;;
59006;SDS011;44792;52.760;6.726;2022-08-01T12:28:26;6.68;;;2.10;;
59006;SDS011;44792;52.760;6.726;2022-08-01T12:30:52;5.05;;;2.22;;
59006;SDS011;44792;52.760;6.726;2022-08-01T12:33:18;9.20;;;2.10;;
59006;SDS011;44792;52.760;6.726;2022-08-01T12:35:46;7.40;;;2.00;;
59006;SDS011;44792;52.760;6.726;2022-08-01T12:38:21;12.60;;;2.45;;
59006;SDS011;44792;52.760;6.726;2022-08-01T12:40:48;6.45;;;2.15;;
59006;SDS011;44792;52.760;6.726;2022-08-01T12:43:18;5.47;;;1.95;;
59006;SDS011;44792;52.760;6.726;2022-08-01T12:45:46;9.65;;;2.55;;
59006;SDS011;44792;52.760;6.726;2022-08-01T12:48:14;7.85;;;2.55;;
59006;SDS011;44792;52.760;6.726;2022-08-01T12:50:50;6.85;;;2.08;;
59006;SDS011;44792;52.760;6.726;2022-08-01T12:53:17;8.35;;;2.08;;
59006;SDS011;44792;52.760;6.726;2022-08-01T12:55:49;9.80;;;2.40;;
59006;SDS011;44792;52.760;6.726;2022-08-01T12:58:16;4.57;;;2.28;;
59006;SDS011;44792;52.760;6.726;2022-08-01T13:00:44;8.77;;;2.85;;
59006;SDS011;44792;52.760;6.726;2022-08-01T13:03:12;9.55;;;2.10;;
59006;SDS011;44792;52.760;6.726;2022-08-01T13:08:18;8.90;;;2.00;;
59006;SDS011;44792;52.760;6.726;2022-08-01T13:11:07;7.68;;;2.28;;
59006;SDS011;44792;52.760;6.726;2022-08-01T13:13:38;7.33;;;2.37;;
59006;SDS011;44792;52.760;6.726;2022-08-01T13:16:06;9.68;;;2.25;;
59006;SDS011;44792;52.760;6.726;2022-08-01T13:18:34;7.85;;;2.42;;
59006;SDS011;44792;52.760;6.726;2022-08-01T13:23:32;5.47;;;2.47;;
59006;SDS011;44792;52.760;6.726;2022-08-01T13:25:57;10.07;;;2.47;;
59006;SDS011;44792;52.760;6.726;2022-08-01T13:28:24;7.65;;;2.03;;
59006;SDS011;44792;52.760;6.726;2022-08-01T13:30:53;8.18;;;2.30;;
59006;SDS011;44792;52.760;6.726;2022-08-01T13:33:24;6.57;;;2.20;;
59006;SDS011;44792;52.760;6.726;2022-08-01T13:35:51;8.60;;;2.00;;
59006;SDS011;44792;52.760;6.726;2022-08-01T13:38:18;7.32;;;2.03;;
59006;SDS011;44792;52.760;6.726;2022-08-01T13:40:44;4.15;;;2.13;;
59006;SDS011;44792;52.760;6.726;2022-08-01T13:43:09;6.47;;;2.30;;
59006;SDS011;44792;52.760;6.726;2022-08-01T13:45:35;13.35;;;2.08;;
59006;SDS011;44792;52.760;6.726;2022-08-01T13:48:01;5.90;;;2.22;;
59006;SDS011;44792;52.760;6.726;2022-08-01T13:50:27;9.65;;;2.50;;
59006;SDS011;44792;52.760;6.726;2022-08-01T13:52:53;4.38;;;1.98;;
59006;SDS011;44792;52.760;6.726;2022-08-01T13:55:18;6.97;;;2.22;;
59006;SDS011;44792;52.760;6.726;2022-08-01T13:57:44;8.25;;;2.40;;
59006;SDS011;44792;52.760;6.726;2022-08-01T14:00:10;5.88;;;1.90;;
59006;SDS011;44792;52.760;6.726;2022-08-01T14:02:36;12.35;;;3.15;;
59006;SDS011;44792;52.760;6.726;2022-08-01T14:05:01;8.15;;;2.30;;
59006;SDS011;44792;52.760;6.726;2022-08-01T14:07:27;9.77;;;2.08;;
59006;SDS011;44792;52.760;6.726;2022-08-01T14:09:53;5.88;;;2.10;;
59006;SDS011;44792;52.760;6.726;2022-08-01T14:12:18;8.20;;;2.10;;
59006;SDS011;44792;52.760;6.726;2022-08-01T14:14:44;13.73;;;2.30;;
59006;SDS011;44792;52.760;6.726;2022-08-01T14:17:10;7.82;;;2.50;;
59006;SDS011;44792;52.760;6.726;2022-08-01T14:19:35;12.60;;;2.22;;
59006;SDS011;44792;52.760;6.726;2022-08-01T14:22:01;5.78;;;2.13;;
59006;SDS011;44792;52.760;6.726;2022-08-01T14:24:26;7.72;;;2.00;;
59006;SDS011;44792;52.760;6.726;2022-08-01T14:26:52;6.70;;;2.20;;
59006;SDS011;44792;52.760;6.726;2022-08-01T14:29:18;6.95;;;2.20;;
59006;SDS011;44792;52.760;6.726;2022-08-01T14:31:44;5.65;;;1.58;;
59006;SDS011;44792;52.760;6.726;2022-08-01T14:34:09;9.02;;;1.80;;
59006;SDS011;44792;52.760;6.726;2022-08-01T14:36:35;7.40;;;2.00;;
59006;SDS011;44792;52.760;6.726;2022-08-01T14:39:00;7.78;;;2.15;;
59006;SDS011;44792;52.760;6.726;2022-08-01T14:41:26;4.20;;;1.75;;
59006;SDS011;44792;52.760;6.726;2022-08-01T14:43:52;6.13;;;2.58;;
59006;SDS011;44792;52.760;6.726;2022-08-01T14:46:18;3.97;;;1.85;;
59006;SDS011;44792;52.760;6.726;2022-08-01T14:48:44;9.27;;;2.20;;
59006;SDS011;44792;52.760;6.726;2022-08-01T14:51:09;4.50;;;1.98;;
59006;SDS011;44792;52.760;6.726;2022-08-01T14:53:35;7.53;;;2.15;;
59006;SDS011;44792;52.760;6.726;2022-08-01T14:56:04;5.88;;;2.13;;
59006;SDS011;44792;52.760;6.726;2022-08-01T14:58:31;11.20;;;2.15;;
59006;SDS011;44792;52.760;6.726;2022-08-01T15:00:57;7.78;;;1.90;;
59006;SDS011;44792;52.760;6.726;2022-08-01T15:03:23;7.90;;;1.85;;
59006;SDS011;44792;52.760;6.726;2022-08-01T15:05:48;5.20;;;2.20;;
59006;SDS011;44792;52.760;6.726;2022-08-01T15:08:14;11.30;;;2.17;;
59006;SDS011;44792;52.760;6.726;2022-08-01T15:10:40;9.43;;;2.20;;
59006;SDS011;44792;52.760;6.726;2022-08-01T15:13:05;5.55;;;1.92;;
59006;SDS011;44792;52.760;6.726;2022-08-01T15:15:31;6.85;;;2.20;;
59006;SDS011;44792;52.760;6.726;2022-08-01T15:17:56;9.10;;;2.45;;
59006;SDS011;44792;52.760;6.726;2022-08-01T15:20:22;6.85;;;2.00;;
59006;SDS011;44792;52.760;6.726;2022-08-01T15:22:49;4.57;;;1.60;;
59006;SDS011;44792;52.760;6.726;2022-08-01T15:25:15;7.50;;;2.10;;